sensor_id;sensor_type;location;lat;lon;timestamp;P1;durP1;ratioP1;P2;durP2;ratioP2
46411;SDS011;32113;42.012;24.870;2024-01-07T00:02:13;81.95;;;47.63;;
46411;SDS011;32113;42.012;24.870;2024-01-07T00:04:39;84.80;;;48.30;;
46411;SDS011;32113;42.012;24.870;2024-01-07T00:07:05;74.13;;;47.55;;
46411;SDS011;32113;42.012;24.870;2024-01-07T00:09:31;75.93;;;44.42;;
46411;SDS011;32113;42.012;24.870;2024-01-07T00:11:56;75.93;;;45.90;;
46411;SDS011;32113;42.012;24.870;2024-01-07T00:14:21;75.50;;;45.65;;
46411;SDS011;32113;42.012;24.870;2024-01-07T00:16:47;75.50;;;46.30;;
46411;SDS011;32113;42.012;24.870;2024-01-07T00:19:12;68.45;;;43.75;;
46411;SDS011;32113;42.012;24.870;2024-01-07T00:21:38;73.47;;;45.35;;
46411;SDS011;32113;42.012;24.870;2024-01-07T00:24:03;66.25;;;41.83;;
46411;SDS011;32113;42.012;24.870;2024-01-07T00:26:29;66.43;;;43.38;;
46411;SDS011;32113;42.012;24.870;2024-01-07T00:28:54;74.25;;;44.88;;
46411;SDS011;32113;42.012;24.870;2024-01-07T00:31:20;72.80;;;45.08;;
46411;SDS011;32113;42.012;24.870;2024-01-07T00:33:45;79.18;;;46.90;;
46411;SDS011;32113;42.012;24.870;2024-01-07T00:36:11;78.60;;;47.63;;
46411;SDS011;32113;42.012;24.870;2024-01-07T00:38:36;73.70;;;44.90;;
46411;SDS011;32113;42.012;24.870;2024-01-07T00:41:01;69.03;;;44.58;;
46411;SDS011;32113;42.012;24.870;2024-01-07T00:43:27;67.90;;;43.22;;
46411;SDS011;32113;42.012;24.870;2024-01-07T00:45:52;63.75;;;41.55;;
46411;SDS011;32113;42.012;24.870;2024-01-07T00:48:17;63.38;;;42.47;;
46411;SDS011;32113;42.012;24.870;2024-01-07T00:50:43;67.55;;;41.95;;
46411;SDS011;32113;42.012;24.870;2024-01-07T00:53:08;62.45;;;43.03;;
46411;SDS011;32113;42.012;24.870;2024-01-07T00:55:34;64.50;;;43.38;;
46411;SDS011;32113;42.012;24.870;2024-01-07T00:58:02;67.40;;;43.85;;
46411;SDS011;32113;42.012;24.870;2024-01-07T01:00:27;65.50;;;42.33;;
46411;SDS011;32113;42.012;24.870;2024-01-07T01:02:53;64.03;;;44.40;;
46411;SDS011;32113;42.012;24.870;2024-01-07T01:05:19;62.78;;;41.33;;
46411;SDS011;32113;42.012;24.870;2024-01-07T01:07:45;68.35;;;43.30;;
46411;SDS011;32113;42.012;24.870;2024-01-07T01:10:10;64.05;;;42.72;;
46411;SDS011;32113;42.012;24.870;2024-01-07T01:12:35;70.50;;;40.88;;
46411;SDS011;32113;42.012;24.870;2024-01-07T01:15:01;64.47;;;40.88;;
46411;SDS011;32113;42.012;24.870;2024-01-07T01:17:26;58.05;;;39.25;;
46411;SDS011;32113;42.012;24.870;2024-01-07T01:19:52;64.47;;;41.03;;
46411;SDS011;32113;42.012;24.870;2024-01-07T01:22:17;65.95;;;41.70;;
46411;SDS011;32113;42.012;24.870;2024-01-07T01:24:42;70.70;;;42.15;;
46411;SDS011;32113;42.012;24.870;2024-01-07T01:27:10;61.30;;;40.65;;
46411;SDS011;32113;42.012;24.870;2024-01-07T01:29:40;61.72;;;41.25;;
46411;SDS011;32113;42.012;24.870;2024-01-07T01:32:06;61.95;;;40.13;;
46411;SDS011;32113;42.012;24.870;2024-01-07T01:34:31;63.17;;;40.70;;
46411;SDS011;32113;42.012;24.870;2024-01-07T01:36:57;57.88;;;38.95;;
46411;SDS011;32113;42.012;24.870;2024-01-07T01:39:22;59.05;;;39.30;;
46411;SDS011;32113;42.012;24.870;2024-01-07T01:41:48;61.65;;;38.78;;
46411;SDS011;32113;42.012;24.870;2024-01-07T01:44:13;56.65;;;38.78;;
46411;SDS011;32113;42.012;24.870;2024-01-07T01:46:38;59.30;;;39.42;;
46411;SDS011;32113;42.012;24.870;2024-01-07T01:49:04;66.43;;;41.40;;
46411;SDS011;32113;42.012;24.870;2024-01-07T01:51:30;63.83;;;41.15;;
46411;SDS011;32113;42.012;24.870;2024-01-07T01:53:55;64.80;;;39.72;;
46411;SDS011;32113;42.012;24.870;2024-01-07T01:56:22;59.55;;;39.35;;
46411;SDS011;32113;42.012;24.870;2024-01-07T01:58:51;62.08;;;39.00;;
46411;SDS011;32113;42.012;24.870;2024-01-07T02:01:16;63.25;;;38.45;;
46411;SDS011;32113;42.012;24.870;2024-01-07T02:03:43;57.17;;;38.53;;
46411;SDS011;32113;42.012;24.870;2024-01-07T02:06:08;56.88;;;37.83;;
46411;SDS011;32113;42.012;24.870;2024-01-07T02:08:35;53.38;;;35.97;;
46411;SDS011;32113;42.012;24.870;2024-01-07T02:11:13;60.60;;;36.70;;
46411;SDS011;32113;42.012;24.870;2024-01-07T02:13:39;56.30;;;36.50;;
46411;SDS011;32113;42.012;24.870;2024-01-07T02:16:05;53.13;;;35.00;;
46411;SDS011;32113;42.012;24.870;2024-01-07T02:18:30;59.60;;;35.40;;
46411;SDS011;32113;42.012;24.870;2024-01-07T02:20:56;54.45;;;35.05;;
46411;SDS011;32113;42.012;24.870;2024-01-07T02:23:21;55.47;;;35.35;;
46411;SDS011;32113;42.012;24.870;2024-01-07T02:25:46;72.78;;;45.28;;
46411;SDS011;32113;42.012;24.870;2024-01-07T02:28:12;57.33;;;37.65;;
46411;SDS011;32113;42.012;24.870;2024-01-07T02:30:37;54.30;;;36.13;;
46411;SDS011;32113;42.012;24.870;2024-01-07T02:33:02;55.53;;;34.67;;
46411;SDS011;32113;42.012;24.870;2024-01-07T02:35:29;51.40;;;33.50;;
46411;SDS011;32113;42.012;24.870;2024-01-07T02:37:55;52.47;;;31.17;;
46411;SDS011;32113;42.012;24.870;2024-01-07T02:40:20;50.80;;;31.75;;
46411;SDS011;32113;42.012;24.870;2024-01-07T02:42:45;51.92;;;32.47;;
46411;SDS011;32113;42.012;24.870;2024-01-07T02:45:11;46.25;;;27.55;;
46411;SDS011;32113;42.012;24.870;2024-01-07T02:47:36;46.85;;;26.38;;
46411;SDS011;32113;42.012;24.870;2024-01-07T02:50:02;50.00;;;28.30;;
46411;SDS011;32113;42.012;24.870;2024-01-07T02:52:28;43.67;;;27.73;;
46411;SDS011;32113;42.012;24.870;2024-01-07T02:54:53;50.97;;;31.55;;
46411;SDS011;32113;42.012;24.870;2024-01-07T02:57:18;45.33;;;30.05;;
46411;SDS011;32113;42.012;24.870;2024-01-07T02:59:44;45.15;;;29.15;;
46411;SDS011;32113;42.012;24.870;2024-01-07T03:02:09;52.92;;;30.90;;
46411;SDS011;32113;42.012;24.870;2024-01-07T03:04:34;38.78;;;26.23;;
46411;SDS011;32113;42.012;24.870;2024-01-07T03:07:00;43.88;;;27.83;;
46411;SDS011;32113;42.012;24.870;2024-01-07T03:09:25;42.80;;;26.38;;
46411;SDS011;32113;42.012;24.870;2024-01-07T03:11:51;36.80;;;25.98;;
46411;SDS011;32113;42.012;24.870;2024-01-07T03:14:16;44.88;;;24.83;;
46411;SDS011;32113;42.012;24.870;2024-01-07T03:16:45;35.95;;;24.42;;
46411;SDS011;32113;42.012;24.870;2024-01-07T03:19:10;35.33;;;24.15;;
46411;SDS011;32113;42.012;24.870;2024-01-07T03:21:36;35.30;;;24.08;;
46411;SDS011;32113;42.012;24.870;2024-01-07T03:24:01;40.50;;;25.58;;
46411;SDS011;32113;42.012;24.870;2024-01-07T03:26:29;43.58;;;25.00;;
46411;SDS011;32113;42.012;24.870;2024-01-07T03:28:55;41.42;;;27.20;;
46411;SDS011;32113;42.012;24.870;2024-01-07T03:31:24;45.60;;;27.38;;
46411;SDS011;32113;42.012;24.870;2024-01-07T03:33:50;38.70;;;25.85;;
46411;SDS011;32113;42.012;24.870;2024-01-07T03:36:15;41.72;;;25.02;;
46411;SDS011;32113;42.012;24.870;2024-01-07T03:38:41;38.60;;;24.40;;
46411;SDS011;32113;42.012;24.870;2024-01-07T03:41:06;36.45;;;24.83;;
46411;SDS011;32113;42.012;24.870;2024-01-07T03:43:32;34.17;;;23.33;;
46411;SDS011;32113;42.012;24.870;2024-01-07T03:45:58;33.38;;;21.52;;
46411;SDS011;32113;42.012;24.870;2024-01-07T03:48:24;29.45;;;19.52;;
46411;SDS011;32113;42.012;24.870;2024-01-07T03:50:49;26.80;;;15.93;;
46411;SDS011;32113;42.012;24.870;2024-01-07T03:53:15;25.58;;;16.52;;
46411;SDS011;32113;42.012;24.870;2024-01-07T03:55:41;27.02;;;16.08;;
46411;SDS011;32113;42.012;24.870;2024-01-07T03:58:06;25.83;;;15.75;;
46411;SDS011;32113;42.012;24.870;2024-01-07T04:00:32;24.67;;;16.13;;
46411;SDS011;32113;42.012;24.870;2024-01-07T04:02:58;32.78;;;18.75;;
46411;SDS011;32113;42.012;24.870;2024-01-07T04:05:24;30.05;;;17.02;;
46411;SDS011;32113;42.012;24.870;2024-01-07T04:07:49;28.73;;;17.35;;
46411;SDS011;32113;42.012;24.870;2024-01-07T04:10:16;26.58;;;17.02;;
46411;SDS011;32113;42.012;24.870;2024-01-07T04:12:42;25.73;;;16.70;;
46411;SDS011;32113;42.012;24.870;2024-01-07T04:15:07;27.70;;;18.23;;
46411;SDS011;32113;42.012;24.870;2024-01-07T04:17:33;25.17;;;17.27;;
46411;SDS011;32113;42.012;24.870;2024-01-07T04:19:58;25.73;;;17.15;;
46411;SDS011;32113;42.012;24.870;2024-01-07T04:22:24;21.00;;;14.15;;
46411;SDS011;32113;42.012;24.870;2024-01-07T04:24:49;18.70;;;12.23;;
46411;SDS011;32113;42.012;24.870;2024-01-07T04:27:14;19.17;;;11.52;;
46411;SDS011;32113;42.012;24.870;2024-01-07T04:29:40;16.25;;;10.10;;
46411;SDS011;32113;42.012;24.870;2024-01-07T04:32:05;15.50;;;8.95;;
46411;SDS011;32113;42.012;24.870;2024-01-07T04:34:31;15.95;;;8.75;;
46411;SDS011;32113;42.012;24.870;2024-01-07T04:36:57;14.77;;;8.68;;
46411;SDS011;32113;42.012;24.870;2024-01-07T04:39:22;33.33;;;20.70;;
46411;SDS011;32113;42.012;24.870;2024-01-07T04:41:48;31.08;;;20.92;;
46411;SDS011;32113;42.012;24.870;2024-01-07T04:44:13;28.77;;;22.88;;
46411;SDS011;32113;42.012;24.870;2024-01-07T04:46:39;30.08;;;21.70;;
46411;SDS011;32113;42.012;24.870;2024-01-07T04:49:05;35.47;;;23.50;;
46411;SDS011;32113;42.012;24.870;2024-01-07T04:51:31;38.65;;;27.10;;
46411;SDS011;32113;42.012;24.870;2024-01-07T04:53:57;52.78;;;35.35;;
46411;SDS011;32113;42.012;24.870;2024-01-07T04:56:23;80.18;;;51.08;;
46411;SDS011;32113;42.012;24.870;2024-01-07T04:58:48;22.02;;;13.35;;
46411;SDS011;32113;42.012;24.870;2024-01-07T05:01:14;11.68;;;8.15;;
46411;SDS011;32113;42.012;24.870;2024-01-07T05:03:39;9.50;;;6.57;;
46411;SDS011;32113;42.012;24.870;2024-01-07T05:06:05;11.55;;;7.25;;
46411;SDS011;32113;42.012;24.870;2024-01-07T05:08:30;13.45;;;6.47;;
46411;SDS011;32113;42.012;24.870;2024-01-07T05:10:56;9.63;;;5.07;;
46411;SDS011;32113;42.012;24.870;2024-01-07T05:13:21;10.60;;;4.80;;
46411;SDS011;32113;42.012;24.870;2024-01-07T05:15:47;7.38;;;3.88;;
46411;SDS011;32113;42.012;24.870;2024-01-07T05:18:19;8.40;;;3.25;;
46411;SDS011;32113;42.012;24.870;2024-01-07T05:20:46;7.60;;;3.20;;
46411;SDS011;32113;42.012;24.870;2024-01-07T05:23:11;5.30;;;2.40;;
46411;SDS011;32113;42.012;24.870;2024-01-07T05:25:36;5.88;;;3.53;;
46411;SDS011;32113;42.012;24.870;2024-01-07T05:28:02;7.28;;;4.60;;
46411;SDS011;32113;42.012;24.870;2024-01-07T05:30:28;5.32;;;2.60;;
46411;SDS011;32113;42.012;24.870;2024-01-07T05:32:53;6.00;;;4.10;;
46411;SDS011;32113;42.012;24.870;2024-01-07T05:35:18;6.68;;;4.03;;
46411;SDS011;32113;42.012;24.870;2024-01-07T05:37:44;5.60;;;3.53;;
46411;SDS011;32113;42.012;24.870;2024-01-07T05:40:09;4.05;;;2.90;;
46411;SDS011;32113;42.012;24.870;2024-01-07T05:42:35;4.53;;;2.90;;
46411;SDS011;32113;42.012;24.870;2024-01-07T05:45:00;4.90;;;2.67;;
46411;SDS011;32113;42.012;24.870;2024-01-07T05:47:27;11.32;;;2.92;;
46411;SDS011;32113;42.012;24.870;2024-01-07T05:49:53;5.72;;;3.20;;
46411;SDS011;32113;42.012;24.870;2024-01-07T05:52:18;5.05;;;2.88;;
46411;SDS011;32113;42.012;24.870;2024-01-07T05:54:44;5.20;;;2.78;;
46411;SDS011;32113;42.012;24.870;2024-01-07T05:57:10;2.85;;;2.10;;
46411;SDS011;32113;42.012;24.870;2024-01-07T05:59:37;5.30;;;1.80;;
46411;SDS011;32113;42.012;24.870;2024-01-07T06:02:02;2.20;;;1.55;;
46411;SDS011;32113;42.012;24.870;2024-01-07T06:04:28;2.90;;;1.63;;
46411;SDS011;32113;42.012;24.870;2024-01-07T06:06:53;3.90;;;1.73;;
46411;SDS011;32113;42.012;24.870;2024-01-07T06:09:19;4.43;;;1.70;;
46411;SDS011;32113;42.012;24.870;2024-01-07T06:11:44;3.97;;;1.58;;
46411;SDS011;32113;42.012;24.870;2024-01-07T06:14:09;4.13;;;2.60;;
46411;SDS011;32113;42.012;24.870;2024-01-07T06:16:35;6.45;;;3.20;;
46411;SDS011;32113;42.012;24.870;2024-01-07T06:19:00;6.35;;;2.58;;
46411;SDS011;32113;42.012;24.870;2024-01-07T06:21:26;4.65;;;2.92;;
46411;SDS011;32113;42.012;24.870;2024-01-07T06:23:51;7.20;;;3.47;;
46411;SDS011;32113;42.012;24.870;2024-01-07T06:26:17;12.65;;;6.80;;
46411;SDS011;32113;42.012;24.870;2024-01-07T06:28:42;13.40;;;8.73;;
46411;SDS011;32113;42.012;24.870;2024-01-07T06:31:08;11.00;;;8.55;;
46411;SDS011;32113;42.012;24.870;2024-01-07T06:33:33;14.25;;;8.80;;
46411;SDS011;32113;42.012;24.870;2024-01-07T06:35:59;14.55;;;8.70;;
46411;SDS011;32113;42.012;24.870;2024-01-07T06:38:25;11.70;;;6.70;;
46411;SDS011;32113;42.012;24.870;2024-01-07T06:40:51;15.63;;;10.35;;
46411;SDS011;32113;42.012;24.870;2024-01-07T06:43:16;12.13;;;9.30;;
46411;SDS011;32113;42.012;24.870;2024-01-07T06:45:42;18.27;;;8.38;;
46411;SDS011;32113;42.012;24.870;2024-01-07T06:48:08;13.10;;;8.00;;
46411;SDS011;32113;42.012;24.870;2024-01-07T06:50:34;15.98;;;8.85;;
46411;SDS011;32113;42.012;24.870;2024-01-07T06:52:59;16.48;;;9.52;;
46411;SDS011;32113;42.012;24.870;2024-01-07T06:55:25;16.95;;;10.43;;
46411;SDS011;32113;42.012;24.870;2024-01-07T06:57:50;15.25;;;10.48;;
46411;SDS011;32113;42.012;24.870;2024-01-07T07:00:16;13.43;;;10.20;;
46411;SDS011;32113;42.012;24.870;2024-01-07T07:02:42;10.10;;;6.47;;
46411;SDS011;32113;42.012;24.870;2024-01-07T07:05:08;11.25;;;7.43;;
46411;SDS011;32113;42.012;24.870;2024-01-07T07:07:34;13.05;;;8.40;;
46411;SDS011;32113;42.012;24.870;2024-01-07T07:09:59;16.60;;;10.68;;
46411;SDS011;32113;42.012;24.870;2024-01-07T07:12:25;16.15;;;11.15;;
46411;SDS011;32113;42.012;24.870;2024-01-07T07:14:50;15.73;;;9.57;;
46411;SDS011;32113;42.012;24.870;2024-01-07T07:17:15;15.52;;;9.65;;
46411;SDS011;32113;42.012;24.870;2024-01-07T07:19:41;16.42;;;11.95;;
46411;SDS011;32113;42.012;24.870;2024-01-07T07:22:07;21.98;;;13.93;;
46411;SDS011;32113;42.012;24.870;2024-01-07T07:24:32;22.02;;;14.38;;
46411;SDS011;32113;42.012;24.870;2024-01-07T07:26:58;22.10;;;15.70;;
46411;SDS011;32113;42.012;24.870;2024-01-07T07:29:23;22.20;;;16.25;;
46411;SDS011;32113;42.012;24.870;2024-01-07T07:31:49;20.58;;;14.48;;
46411;SDS011;32113;42.012;24.870;2024-01-07T07:34:14;17.75;;;12.73;;
46411;SDS011;32113;42.012;24.870;2024-01-07T07:36:39;15.60;;;12.05;;
46411;SDS011;32113;42.012;24.870;2024-01-07T07:39:06;18.63;;;13.57;;
46411;SDS011;32113;42.012;24.870;2024-01-07T07:41:32;17.65;;;13.15;;
46411;SDS011;32113;42.012;24.870;2024-01-07T07:43:57;14.15;;;10.13;;
46411;SDS011;32113;42.012;24.870;2024-01-07T07:46:23;16.13;;;10.50;;
46411;SDS011;32113;42.012;24.870;2024-01-07T07:48:48;13.77;;;10.00;;
46411;SDS011;32113;42.012;24.870;2024-01-07T07:51:14;14.77;;;11.07;;
46411;SDS011;32113;42.012;24.870;2024-01-07T07:53:39;17.38;;;14.07;;
46411;SDS011;32113;42.012;24.870;2024-01-07T07:56:05;22.80;;;16.98;;
46411;SDS011;32113;42.012;24.870;2024-01-07T07:58:31;20.65;;;14.95;;
46411;SDS011;32113;42.012;24.870;2024-01-07T08:00:56;21.38;;;15.48;;
46411;SDS011;32113;42.012;24.870;2024-01-07T08:03:22;19.85;;;14.82;;
46411;SDS011;32113;42.012;24.870;2024-01-07T08:05:48;17.25;;;12.30;;
46411;SDS011;32113;42.012;24.870;2024-01-07T08:08:15;19.00;;;12.90;;
46411;SDS011;32113;42.012;24.870;2024-01-07T08:10:42;15.57;;;10.55;;
46411;SDS011;32113;42.012;24.870;2024-01-07T08:13:07;14.70;;;9.85;;
46411;SDS011;32113;42.012;24.870;2024-01-07T08:15:34;12.00;;;8.82;;
46411;SDS011;32113;42.012;24.870;2024-01-07T08:17:59;15.40;;;10.73;;
46411;SDS011;32113;42.012;24.870;2024-01-07T08:20:25;19.50;;;11.68;;
46411;SDS011;32113;42.012;24.870;2024-01-07T08:22:50;20.65;;;11.52;;
46411;SDS011;32113;42.012;24.870;2024-01-07T08:25:16;18.60;;;11.82;;
46411;SDS011;32113;42.012;24.870;2024-01-07T08:27:41;17.25;;;11.52;;
46411;SDS011;32113;42.012;24.870;2024-01-07T08:30:07;18.65;;;12.43;;
46411;SDS011;32113;42.012;24.870;2024-01-07T08:32:33;19.20;;;12.15;;
46411;SDS011;32113;42.012;24.870;2024-01-07T08:35:00;17.40;;;11.60;;
46411;SDS011;32113;42.012;24.870;2024-01-07T08:37:25;14.85;;;10.55;;
46411;SDS011;32113;42.012;24.870;2024-01-07T08:39:51;14.30;;;10.48;;
46411;SDS011;32113;42.012;24.870;2024-01-07T08:42:16;14.68;;;10.43;;
46411;SDS011;32113;42.012;24.870;2024-01-07T08:44:42;14.50;;;9.13;;
46411;SDS011;32113;42.012;24.870;2024-01-07T08:47:07;13.63;;;8.05;;
46411;SDS011;32113;42.012;24.870;2024-01-07T08:49:33;14.77;;;9.65;;
46411;SDS011;32113;42.012;24.870;2024-01-07T08:51:58;11.63;;;7.22;;
46411;SDS011;32113;42.012;24.870;2024-01-07T08:54:24;10.73;;;6.72;;
46411;SDS011;32113;42.012;24.870;2024-01-07T08:56:49;15.13;;;10.65;;
46411;SDS011;32113;42.012;24.870;2024-01-07T08:59:15;21.02;;;13.98;;
46411;SDS011;32113;42.012;24.870;2024-01-07T09:01:40;17.52;;;10.63;;
46411;SDS011;32113;42.012;24.870;2024-01-07T09:04:05;17.02;;;9.85;;
46411;SDS011;32113;42.012;24.870;2024-01-07T09:06:31;20.65;;;9.50;;
46411;SDS011;32113;42.012;24.870;2024-01-07T09:08:57;14.20;;;9.02;;
46411;SDS011;32113;42.012;24.870;2024-01-07T09:11:23;17.02;;;10.32;;
46411;SDS011;32113;42.012;24.870;2024-01-07T09:13:49;16.85;;;10.20;;
46411;SDS011;32113;42.012;24.870;2024-01-07T09:16:15;18.02;;;11.50;;
46411;SDS011;32113;42.012;24.870;2024-01-07T09:18:41;16.95;;;11.90;;
46411;SDS011;32113;42.012;24.870;2024-01-07T09:21:09;17.73;;;11.23;;
46411;SDS011;32113;42.012;24.870;2024-01-07T09:23:34;19.15;;;12.75;;
46411;SDS011;32113;42.012;24.870;2024-01-07T09:26:01;19.20;;;10.68;;
46411;SDS011;32113;42.012;24.870;2024-01-07T09:28:26;14.07;;;10.07;;
46411;SDS011;32113;42.012;24.870;2024-01-07T09:30:52;17.25;;;11.85;;
46411;SDS011;32113;42.012;24.870;2024-01-07T09:33:17;21.20;;;11.82;;
46411;SDS011;32113;42.012;24.870;2024-01-07T09:35:43;20.15;;;10.70;;
46411;SDS011;32113;42.012;24.870;2024-01-07T09:38:08;23.70;;;10.73;;
46411;SDS011;32113;42.012;24.870;2024-01-07T09:40:34;18.30;;;9.82;;
46411;SDS011;32113;42.012;24.870;2024-01-07T09:42:59;19.60;;;10.18;;
46411;SDS011;32113;42.012;24.870;2024-01-07T09:45:25;19.40;;;11.05;;
46411;SDS011;32113;42.012;24.870;2024-01-07T09:47:51;15.95;;;10.75;;
46411;SDS011;32113;42.012;24.870;2024-01-07T09:50:17;19.98;;;12.07;;
46411;SDS011;32113;42.012;24.870;2024-01-07T09:52:45;24.15;;;15.18;;
46411;SDS011;32113;42.012;24.870;2024-01-07T09:55:26;21.10;;;13.95;;
46411;SDS011;32113;42.012;24.870;2024-01-07T09:57:54;25.75;;;12.93;;
46411;SDS011;32113;42.012;24.870;2024-01-07T10:00:20;25.60;;;12.23;;
46411;SDS011;32113;42.012;24.870;2024-01-07T10:02:45;21.88;;;12.05;;
46411;SDS011;32113;42.012;24.870;2024-01-07T10:05:10;25.67;;;12.75;;
46411;SDS011;32113;42.012;24.870;2024-01-07T10:07:36;22.33;;;10.45;;
46411;SDS011;32113;42.012;24.870;2024-01-07T10:10:17;22.52;;;11.15;;
46411;SDS011;32113;42.012;24.870;2024-01-07T10:12:45;26.67;;;12.95;;
46411;SDS011;32113;42.012;24.870;2024-01-07T10:15:12;26.65;;;12.77;;
46411;SDS011;32113;42.012;24.870;2024-01-07T10:17:37;23.05;;;12.05;;
46411;SDS011;32113;42.012;24.870;2024-01-07T10:20:05;18.03;;;11.37;;
46411;SDS011;32113;42.012;24.870;2024-01-07T10:22:34;23.95;;;11.90;;
46411;SDS011;32113;42.012;24.870;2024-01-07T10:25:01;18.65;;;11.48;;
46411;SDS011;32113;42.012;24.870;2024-01-07T10:27:26;27.15;;;11.55;;
46411;SDS011;32113;42.012;24.870;2024-01-07T10:29:52;22.75;;;12.88;;
46411;SDS011;32113;42.012;24.870;2024-01-07T10:34:46;21.23;;;11.85;;
46411;SDS011;32113;42.012;24.870;2024-01-07T10:37:14;21.77;;;10.63;;
46411;SDS011;32113;42.012;24.870;2024-01-07T10:39:40;13.82;;;8.75;;
46411;SDS011;32113;42.012;24.870;2024-01-07T10:42:05;15.23;;;8.45;;
46411;SDS011;32113;42.012;24.870;2024-01-07T10:44:32;17.52;;;9.02;;
46411;SDS011;32113;42.012;24.870;2024-01-07T10:46:58;17.67;;;10.10;;
46411;SDS011;32113;42.012;24.870;2024-01-07T10:49:25;19.77;;;11.13;;
46411;SDS011;32113;42.012;24.870;2024-01-07T10:52:05;15.32;;;9.98;;
46411;SDS011;32113;42.012;24.870;2024-01-07T10:54:32;18.52;;;10.95;;
46411;SDS011;32113;42.012;24.870;2024-01-07T10:59:33;21.77;;;12.50;;
46411;SDS011;32113;42.012;24.870;2024-01-07T11:01:59;16.73;;;11.23;;
46411;SDS011;32113;42.012;24.870;2024-01-07T11:11:07;22.02;;;8.02;;
46411;SDS011;32113;42.012;24.870;2024-01-07T11:13:16;14.77;;;7.45;;
46411;SDS011;32113;42.012;24.870;2024-01-07T11:15:56;10.63;;;6.70;;
46411;SDS011;32113;42.012;24.870;2024-01-07T11:18:23;18.67;;;7.70;;
46411;SDS011;32113;42.012;24.870;2024-01-07T11:20:48;19.52;;;10.07;;
46411;SDS011;32113;42.012;24.870;2024-01-07T11:23:27;19.25;;;11.57;;
46411;SDS011;32113;42.012;24.870;2024-01-07T11:25:55;23.13;;;12.90;;
46411;SDS011;32113;42.012;24.870;2024-01-07T11:28:42;26.15;;;12.77;;
46411;SDS011;32113;42.012;24.870;2024-01-07T11:31:11;20.17;;;12.60;;
46411;SDS011;32113;42.012;24.870;2024-01-07T11:33:44;20.50;;;12.65;;
46411;SDS011;32113;42.012;24.870;2024-01-07T11:36:11;20.27;;;12.48;;
46411;SDS011;32113;42.012;24.870;2024-01-07T11:38:41;21.92;;;11.73;;
46411;SDS011;32113;42.012;24.870;2024-01-07T11:41:07;19.08;;;10.88;;
46411;SDS011;32113;42.012;24.870;2024-01-07T11:43:34;13.57;;;7.83;;
46411;SDS011;32113;42.012;24.870;2024-01-07T11:45:59;17.13;;;7.40;;
46411;SDS011;32113;42.012;24.870;2024-01-07T11:48:25;17.52;;;8.02;;
46411;SDS011;32113;42.012;24.870;2024-01-07T11:50:52;12.25;;;6.75;;
46411;SDS011;32113;42.012;24.870;2024-01-07T11:53:17;18.48;;;7.70;;
46411;SDS011;32113;42.012;24.870;2024-01-07T11:55:43;14.75;;;7.18;;
46411;SDS011;32113;42.012;24.870;2024-01-07T11:58:10;15.73;;;7.03;;
46411;SDS011;32113;42.012;24.870;2024-01-07T12:00:35;23.65;;;7.65;;
46411;SDS011;32113;42.012;24.870;2024-01-07T12:03:01;16.35;;;6.50;;
46411;SDS011;32113;42.012;24.870;2024-01-07T12:05:27;12.00;;;7.22;;
46411;SDS011;32113;42.012;24.870;2024-01-07T12:07:53;13.88;;;7.28;;
46411;SDS011;32113;42.012;24.870;2024-01-07T12:10:19;21.42;;;8.35;;
46411;SDS011;32113;42.012;24.870;2024-01-07T12:12:44;21.02;;;8.73;;
46411;SDS011;32113;42.012;24.870;2024-01-07T12:15:10;20.58;;;7.53;;
46411;SDS011;32113;42.012;24.870;2024-01-07T12:17:40;18.75;;;8.18;;
46411;SDS011;32113;42.012;24.870;2024-01-07T12:20:06;22.10;;;8.38;;
46411;SDS011;32113;42.012;24.870;2024-01-07T12:22:36;24.60;;;9.05;;
46411;SDS011;32113;42.012;24.870;2024-01-07T12:25:03;15.30;;;6.90;;
46411;SDS011;32113;42.012;24.870;2024-01-07T12:27:29;20.45;;;5.90;;
46411;SDS011;32113;42.012;24.870;2024-01-07T12:29:58;15.23;;;4.30;;
46411;SDS011;32113;42.012;24.870;2024-01-07T12:32:30;13.77;;;5.13;;
46411;SDS011;32113;42.012;24.870;2024-01-07T12:34:59;14.35;;;4.97;;
46411;SDS011;32113;42.012;24.870;2024-01-07T12:37:28;13.73;;;5.93;;
46411;SDS011;32113;42.012;24.870;2024-01-07T12:39:54;14.40;;;4.93;;
46411;SDS011;32113;42.012;24.870;2024-01-07T12:42:19;13.82;;;4.55;;
46411;SDS011;32113;42.012;24.870;2024-01-07T12:44:47;16.33;;;4.57;;
46411;SDS011;32113;42.012;24.870;2024-01-07T12:47:14;14.93;;;5.80;;
46411;SDS011;32113;42.012;24.870;2024-01-07T12:49:39;18.25;;;6.03;;
46411;SDS011;32113;42.012;24.870;2024-01-07T12:52:05;20.95;;;6.30;;
46411;SDS011;32113;42.012;24.870;2024-01-07T12:54:30;17.08;;;7.07;;
46411;SDS011;32113;42.012;24.870;2024-01-07T12:56:56;14.18;;;6.20;;
46411;SDS011;32113;42.012;24.870;2024-01-07T12:59:21;16.60;;;7.15;;
46411;SDS011;32113;42.012;24.870;2024-01-07T13:01:46;16.42;;;6.22;;
46411;SDS011;32113;42.012;24.870;2024-01-07T13:04:12;15.30;;;6.53;;
46411;SDS011;32113;42.012;24.870;2024-01-07T13:06:38;26.52;;;7.88;;
46411;SDS011;32113;42.012;24.870;2024-01-07T13:09:03;26.15;;;8.63;;
46411;SDS011;32113;42.012;24.870;2024-01-07T13:11:29;24.60;;;10.57;;
46411;SDS011;32113;42.012;24.870;2024-01-07T13:13:55;21.67;;;8.82;;
46411;SDS011;32113;42.012;24.870;2024-01-07T13:16:25;19.17;;;7.20;;
46411;SDS011;32113;42.012;24.870;2024-01-07T13:18:50;20.67;;;7.53;;
46411;SDS011;32113;42.012;24.870;2024-01-07T13:21:16;18.83;;;5.15;;
46411;SDS011;32113;42.012;24.870;2024-01-07T13:23:42;22.73;;;5.00;;
46411;SDS011;32113;42.012;24.870;2024-01-07T13:26:09;16.05;;;4.70;;
46411;SDS011;32113;42.012;24.870;2024-01-07T13:28:37;16.38;;;5.72;;
46411;SDS011;32113;42.012;24.870;2024-01-07T13:31:02;17.98;;;4.57;;
46411;SDS011;32113;42.012;24.870;2024-01-07T13:33:37;15.82;;;5.28;;
46411;SDS011;32113;42.012;24.870;2024-01-07T13:36:02;16.45;;;6.20;;
46411;SDS011;32113;42.012;24.870;2024-01-07T13:38:33;14.77;;;7.97;;
46411;SDS011;32113;42.012;24.870;2024-01-07T13:40:59;26.27;;;8.60;;
46411;SDS011;32113;42.012;24.870;2024-01-07T13:43:25;20.17;;;7.45;;
46411;SDS011;32113;42.012;24.870;2024-01-07T13:45:52;22.10;;;8.77;;
46411;SDS011;32113;42.012;24.870;2024-01-07T13:48:18;22.02;;;8.65;;
46411;SDS011;32113;42.012;24.870;2024-01-07T13:50:43;27.33;;;8.88;;
46411;SDS011;32113;42.012;24.870;2024-01-07T13:53:10;30.85;;;8.63;;
46411;SDS011;32113;42.012;24.870;2024-01-07T13:55:36;24.77;;;9.25;;
46411;SDS011;32113;42.012;24.870;2024-01-07T13:58:01;25.65;;;9.23;;
46411;SDS011;32113;42.012;24.870;2024-01-07T14:00:27;26.48;;;9.68;;
46411;SDS011;32113;42.012;24.870;2024-01-07T14:02:52;29.92;;;9.70;;
46411;SDS011;32113;42.012;24.870;2024-01-07T14:05:18;33.92;;;9.45;;
46411;SDS011;32113;42.012;24.870;2024-01-07T14:07:43;29.85;;;9.43;;
46411;SDS011;32113;42.012;24.870;2024-01-07T14:10:09;29.50;;;8.88;;
46411;SDS011;32113;42.012;24.870;2024-01-07T14:12:34;16.85;;;7.10;;
46411;SDS011;32113;42.012;24.870;2024-01-07T14:15:00;23.33;;;9.15;;
46411;SDS011;32113;42.012;24.870;2024-01-07T14:17:25;29.65;;;12.52;;
46411;SDS011;32113;42.012;24.870;2024-01-07T14:19:51;26.27;;;11.43;;
46411;SDS011;32113;42.012;24.870;2024-01-07T14:22:22;32.38;;;12.90;;